createdAt,value
2022-08-01T00:00:03.707Z,10.60
2022-08-01T00:02:32.630Z,10.43
2022-08-01T00:05:01.028Z,10.30
2022-08-01T00:07:28.598Z,10.10
2022-08-01T00:09:55.531Z,9.53
2022-08-01T00:12:23.519Z,10.97
2022-08-01T00:14:50.131Z,10.37
2022-08-01T00:17:16.734Z,10.70
2022-08-01T00:19:43.275Z,10.77
2022-08-01T00:22:09.873Z,10.97
2022-08-01T00:24:36.586Z,9.50
2022-08-01T00:27:03.528Z,10.40
2022-08-01T00:30:11.765Z,10.30
2022-08-01T00:32:17.415Z,10.43
2022-08-01T00:34:43.909Z,11.30
2022-08-01T00:37:10.389Z,11.10
2022-08-01T00:39:42.056Z,11.30
2022-08-01T00:42:11.882Z,11.30
2022-08-01T00:44:38.894Z,11.20
2022-08-01T00:47:06.289Z,11.20
2022-08-01T00:49:33.612Z,11.60
2022-08-01T00:52:06.403Z,10.90
2022-08-01T00:54:33.682Z,10.93
2022-08-01T00:57:11.022Z,10.40
2022-08-01T00:59:37.805Z,9.77
2022-08-01T01:02:14.961Z,10.00
2022-08-01T01:04:43.178Z,8.73
2022-08-01T01:07:49.802Z,9.47
2022-08-01T01:10:23.249Z,9.73
2022-08-01T01:12:52.659Z,8.63
2022-08-01T01:15:37.243Z,8.70
2022-08-01T01:18:08.167Z,8.87
2022-08-01T01:20:46.717Z,8.57
2022-08-01T01:23:35.387Z,8.40
2022-08-01T01:26:18.049Z,8.37
2022-08-01T01:29:09.403Z,8.53
2022-08-01T01:32:03.779Z,7.90
2022-08-01T01:34:35.150Z,7.83
2022-08-01T01:37:03.620Z,6.70
2022-08-01T01:39:33.583Z,6.80
2022-08-01T01:42:02.270Z,5.67
2022-08-01T01:44:30.412Z,5.27
2022-08-01T01:46:59.104Z,4.70
2022-08-01T01:49:28.293Z,4.80
2022-08-01T01:52:02.195Z,4.70
2022-08-01T01:54:41.757Z,4.07
2022-08-01T01:57:09.750Z,4.17
2022-08-01T01:59:39.956Z,4.53
2022-08-01T02:02:08.333Z,4.20
2022-08-01T02:04:38.822Z,4.23
2022-08-01T02:07:07.745Z,4.13
2022-08-01T02:09:36.418Z,4.17
2022-08-01T02:12:09.372Z,3.87
2022-08-01T02:14:36.858Z,4.07
2022-08-01T02:17:05.146Z,3.70
2022-08-01T02:19:38.921Z,4.27
2022-08-01T02:22:17.743Z,3.97
2022-08-01T02:24:55.769Z,3.93
2022-08-01T02:27:28.765Z,4.77
2022-08-01T02:30:08.106Z,4.17
2022-08-01T02:32:43.787Z,5.27
2022-08-01T02:35:28.326Z,3.73
2022-08-01T02:37:58.669Z,3.10
2022-08-01T02:40:28.574Z,3.03
2022-08-01T02:42:58.593Z,3.27
2022-08-01T02:45:32.467Z,3.10
2022-08-01T02:48:06.780Z,3.43
2022-08-01T02:50:34.992Z,3.70
2022-08-01T02:53:04.934Z,3.90
2022-08-01T02:55:33.896Z,4.00
2022-08-01T02:58:10.157Z,3.63
2022-08-01T03:00:42.162Z,4.13
2022-08-01T03:03:11.162Z,4.37
2022-08-01T03:05:41.150Z,3.47
2022-08-01T03:08:14.634Z,4.70
2022-08-01T03:10:44.050Z,3.93
2022-08-01T03:13:12.145Z,4.03
2022-08-01T03:15:41.628Z,4.20
2022-08-01T03:18:10.626Z,4.50
2022-08-01T03:20:37.178Z,4.20
2022-08-01T03:23:09.589Z,4.47
2022-08-01T03:25:39.603Z,5.07
2022-08-01T03:28:08.026Z,5.50
2022-08-01T03:30:37.826Z,5.20
2022-08-01T03:33:04.973Z,5.27
2022-08-01T03:35:35.184Z,5.57
2022-08-01T03:38:16.172Z,5.43
2022-08-01T03:40:58.599Z,5.33
2022-08-01T03:43:29.468Z,5.50
2022-08-01T03:46:02.306Z,6.07
2022-08-01T03:48:33.682Z,5.77
2022-08-01T03:51:00.719Z,5.80
2022-08-01T03:53:33.687Z,6.37
2022-08-01T03:56:02.683Z,6.60
2022-08-01T03:58:31.337Z,6.20
2022-08-01T04:00:58.671Z,6.07
2022-08-01T04:03:25.773Z,6.50
2022-08-01T04:05:52.199Z,6.93
2022-08-01T04:08:18.715Z,7.10
2022-08-01T04:10:45.215Z,7.60
2022-08-01T04:13:11.714Z,8.37
2022-08-01T04:15:38.195Z,8.03
2022-08-01T04:18:05.144Z,8.70
2022-08-01T04:20:32.147Z,8.30
2022-08-01T04:22:59.590Z,9.57
2022-08-01T04:25:29.520Z,9.10
2022-08-01T04:27:58.659Z,9.43
2022-08-01T04:30:28.450Z,10.40
2022-08-01T04:32:58.576Z,9.23
2022-08-01T04:36:01.607Z,8.70
2022-08-01T04:38:18.029Z,8.67
2022-08-01T04:40:46.817Z,7.37
2022-08-01T04:43:14.987Z,6.53
2022-08-01T04:45:44.539Z,6.73
2022-08-01T04:48:12.739Z,6.10
2022-08-01T04:50:39.195Z,6.03
2022-08-01T04:53:06.041Z,6.33
2022-08-01T04:55:32.551Z,6.43
2022-08-01T04:57:59.550Z,6.20
2022-08-01T05:00:27.615Z,6.20
2022-08-01T05:02:54.071Z,6.87
2022-08-01T05:05:21.906Z,7.17
2022-08-01T05:07:48.863Z,8.00
2022-08-01T05:10:15.345Z,7.33
2022-08-01T05:12:41.946Z,8.27
2022-08-01T05:15:14.787Z,8.33
2022-08-01T05:17:43.306Z,9.33
2022-08-01T05:20:11.020Z,9.07
2022-08-01T05:22:37.600Z,8.77
2022-08-01T05:25:08.830Z,8.43
2022-08-01T05:27:40.338Z,8.70
2022-08-01T05:30:10.565Z,8.50
2022-08-01T05:32:37.366Z,9.00
2022-08-01T05:35:04.859Z,8.30
2022-08-01T05:37:31.413Z,8.83
2022-08-01T05:39:58.608Z,8.77
2022-08-01T05:42:25.131Z,8.60
2022-08-01T05:44:51.883Z,9.50
2022-08-01T05:47:18.583Z,8.73
2022-08-01T05:49:46.247Z,7.77
2022-08-01T05:52:13.213Z,7.27
2022-08-01T05:54:39.859Z,7.10
2022-08-01T05:57:07.368Z,8.03
2022-08-01T05:59:34.501Z,7.43
2022-08-01T06:02:01.215Z,7.33
2022-08-01T06:04:28.721Z,5.80
2022-08-01T06:06:55.267Z,3.20
2022-08-01T06:09:21.776Z,2.50
2022-08-01T06:11:48.418Z,2.40
2022-08-01T06:14:15.091Z,2.33
2022-08-01T06:16:41.489Z,2.50
2022-08-01T06:19:07.944Z,2.50
2022-08-01T06:21:34.562Z,2.70
2022-08-01T06:24:01.091Z,2.60
2022-08-01T06:26:28.157Z,3.00
2022-08-01T06:28:54.779Z,2.70
2022-08-01T06:31:21.537Z,2.70
2022-08-01T06:33:48.140Z,3.10
2022-08-01T06:36:14.603Z,3.37
2022-08-01T06:38:41.082Z,3.20
2022-08-01T06:41:07.663Z,3.10
2022-08-01T06:43:34.170Z,3.27
2022-08-01T06:46:00.928Z,2.97
2022-08-01T06:48:27.911Z,3.13
2022-08-01T06:51:09.335Z,2.70
2022-08-01T06:53:39.381Z,2.83
2022-08-01T06:56:07.076Z,3.27
2022-08-01T06:58:35.254Z,2.80
2022-08-01T07:01:06.803Z,2.57
2022-08-01T07:04:00.668Z,2.60
2022-08-01T07:06:27.536Z,2.63
2022-08-01T07:08:54.558Z,3.27
2022-08-01T07:11:22.908Z,3.17
2022-08-01T07:13:52.748Z,2.90
2022-08-01T07:16:19.293Z,3.27
2022-08-01T07:18:45.850Z,3.00
2022-08-01T07:21:16.754Z,3.10
2022-08-01T07:24:00.303Z,2.93
2022-08-01T07:26:28.867Z,2.90
2022-08-01T07:28:55.512Z,2.57
2022-08-01T07:31:22.383Z,2.50
2022-08-01T07:33:49.560Z,2.67
2022-08-01T07:36:19.765Z,2.47
2022-08-01T07:38:47.229Z,2.40
2022-08-01T07:41:13.878Z,2.30
2022-08-01T07:43:40.365Z,2.70
2022-08-01T07:46:07.113Z,2.03
2022-08-01T07:48:34.025Z,1.77
2022-08-01T07:51:00.798Z,2.03
2022-08-01T07:53:27.554Z,1.90
2022-08-01T07:55:54.113Z,1.70
2022-08-01T07:58:20.581Z,1.70
2022-08-01T08:00:47.027Z,1.70
2022-08-01T08:03:13.437Z,1.60
2022-08-01T08:05:52.847Z,1.60
2022-08-01T08:08:26.191Z,1.80
2022-08-01T08:10:52.798Z,2.17
2022-08-01T08:13:19.427Z,1.60
2022-08-01T08:15:48.298Z,1.60
2022-08-01T08:18:15.154Z,1.57
2022-08-01T08:20:41.664Z,1.50
2022-08-01T08:23:43.308Z,1.63
2022-08-01T08:26:11.546Z,1.50
2022-08-01T08:28:38.035Z,1.60
2022-08-01T08:31:07.193Z,1.30
2022-08-01T08:33:33.790Z,1.47
2022-08-01T08:36:00.500Z,1.30
2022-08-01T08:38:30.116Z,1.30
2022-08-01T08:40:57.944Z,1.57
2022-08-01T08:43:26.242Z,2.00
2022-08-01T08:45:59.015Z,1.40
2022-08-01T08:48:27.890Z,1.50
2022-08-01T08:50:56.184Z,1.10
2022-08-01T08:53:23.684Z,1.20
2022-08-01T08:55:55.413Z,1.20
2022-08-01T08:58:30.524Z,1.10
2022-08-01T09:00:59.986Z,1.40
2022-08-01T09:03:27.754Z,1.20
2022-08-01T09:05:54.340Z,1.40
2022-08-01T09:08:20.799Z,1.80
2022-08-01T09:10:47.400Z,1.27
2022-08-01T09:13:15.368Z,1.30
2022-08-01T09:15:46.737Z,1.37
2022-08-01T09:18:32.994Z,1.03
2022-08-01T09:21:18.920Z,1.20
2022-08-01T09:23:53.903Z,1.20
2022-08-01T09:26:31.014Z,2.13
2022-08-01T09:29:00.224Z,2.77
2022-08-01T09:31:38.150Z,3.40
2022-08-01T09:34:05.582Z,3.90
2022-08-01T09:36:55.392Z,4.10
2022-08-01T09:39:24.899Z,4.03
2022-08-01T09:41:52.286Z,5.37
2022-08-01T09:44:45.599Z,5.90
2022-08-01T09:47:25.395Z,7.00
2022-08-01T09:49:59.192Z,7.00
2022-08-01T09:52:29.516Z,7.43
2022-08-01T09:55:08.557Z,7.77
2022-08-01T09:57:35.486Z,7.60
2022-08-01T10:00:04.112Z,6.40
2022-08-01T10:02:41.605Z,6.70
2022-08-01T10:05:10.950Z,7.33
2022-08-01T10:08:00.205Z,8.03
2022-08-01T10:10:29.019Z,8.37
2022-08-01T10:12:59.995Z,7.07
2022-08-01T10:15:37.533Z,5.37
2022-08-01T10:18:16.236Z,5.77
2022-08-01T10:20:48.932Z,5.50
2022-08-01T10:23:16.351Z,4.20
2022-08-01T10:25:46.836Z,4.87
2022-08-01T10:28:23.689Z,4.27
2022-08-01T10:30:53.386Z,4.80
2022-08-01T10:33:50.953Z,5.10
2022-08-01T10:36:11.254Z,5.10
2022-08-01T10:38:38.051Z,5.10
2022-08-01T10:41:08.550Z,6.27
2022-08-01T10:43:36.223Z,5.60
2022-08-01T10:46:05.239Z,5.90
2022-08-01T10:48:52.224Z,6.27
2022-08-01T10:51:22.072Z,5.60
2022-08-01T10:53:56.061Z,5.40
2022-08-01T10:56:27.188Z,5.17
2022-08-01T10:59:11.454Z,5.80
2022-08-01T11:01:43.391Z,5.53
2022-08-01T11:04:17.984Z,5.53
2022-08-01T11:07:10.208Z,6.03
2022-08-01T11:09:41.693Z,5.33
2022-08-01T11:12:13.558Z,4.80
2022-08-01T11:15:00.078Z,4.70
2022-08-01T11:17:54.871Z,4.87
2022-08-01T11:20:30.193Z,4.90
2022-08-01T11:23:00.323Z,4.50
2022-08-01T11:26:05.441Z,4.77
2022-08-01T11:28:32.165Z,4.20
2022-08-01T11:31:07.683Z,5.40
2022-08-01T11:33:55.059Z,5.10
2022-08-01T11:36:55.842Z,5.23
2022-08-01T11:39:13.285Z,4.93
2022-08-01T11:41:41.308Z,5.03
2022-08-01T11:44:14.317Z,5.03
2022-08-01T11:46:49.971Z,5.20
2022-08-01T11:49:45.251Z,5.20
2022-08-01T11:52:37.007Z,5.20
2022-08-01T11:55:03.442Z,4.90
2022-08-01T11:57:35.603Z,5.40
2022-08-01T12:00:15.452Z,5.97
2022-08-01T12:02:45.209Z,5.33
2022-08-01T12:05:15.557Z,5.90
2022-08-01T12:07:43.905Z,5.90
2022-08-01T12:10:16.695Z,7.17
2022-08-01T12:12:44.628Z,6.90
2022-08-01T12:15:11.650Z,7.23
2022-08-01T12:17:57.854Z,7.23
2022-08-01T12:20:31.992Z,5.73
2022-08-01T12:23:25.019Z,6.73
2022-08-01T12:25:54.737Z,6.70
2022-08-01T12:28:22.068Z,6.63
2022-08-01T12:30:50.045Z,6.50
2022-08-01T12:33:19.822Z,8.30
2022-08-01T12:35:46.489Z,7.43
2022-08-01T12:38:23.917Z,6.80
2022-08-01T12:40:53.057Z,6.50
2022-08-01T12:43:27.907Z,6.60
2022-08-01T12:45:57.949Z,6.47
2022-08-01T12:48:26.089Z,6.07
2022-08-01T12:50:53.766Z,6.47
2022-08-01T12:53:21.894Z,5.90
2022-08-01T12:55:58.131Z,6.37
2022-08-01T12:58:25.383Z,6.00
2022-08-01T13:01:04.858Z,6.23
2022-08-01T13:03:31.532Z,5.40
2022-08-01T13:05:59.591Z,5.43
2022-08-01T13:08:31.829Z,5.13
2022-08-01T13:11:06.929Z,5.60
2022-08-01T13:13:45.048Z,5.97
2022-08-01T13:16:25.951Z,5.50
2022-08-01T13:19:00.360Z,5.03
2022-08-01T13:21:29.478Z,4.83
2022-08-01T13:24:16.579Z,5.03
2022-08-01T13:26:48.515Z,5.37
2022-08-01T13:29:17.315Z,5.50
2022-08-01T13:31:44.858Z,5.30
2022-08-01T13:34:12.294Z,5.70
2022-08-01T13:36:39.717Z,5.50
2022-08-01T13:39:25.169Z,5.73
2022-08-01T13:41:51.925Z,4.60
2022-08-01T13:44:18.917Z,4.23
2022-08-01T13:46:49.682Z,5.60
2022-08-01T13:49:18.921Z,4.27
2022-08-01T13:51:46.776Z,4.20
2022-08-01T13:54:13.454Z,4.47
2022-08-01T13:56:39.945Z,4.20
2022-08-01T13:59:07.425Z,3.80
2022-08-01T14:01:34.755Z,3.57
2022-08-01T14:04:02.912Z,4.00
2022-08-01T14:06:30.565Z,3.80
2022-08-01T14:08:57.049Z,3.70
2022-08-01T14:11:24.886Z,3.90
2022-08-01T14:13:55.249Z,4.27
2022-08-01T14:16:21.724Z,3.70
2022-08-01T14:18:48.250Z,3.80
2022-08-01T14:21:15.860Z,3.27
2022-08-01T14:23:43.898Z,3.03
2022-08-01T14:26:12.469Z,3.70
2022-08-01T14:28:40.047Z,3.50
2022-08-01T14:31:07.357Z,3.50
2022-08-01T14:33:34.264Z,3.03
2022-08-01T14:36:29.686Z,2.90
2022-08-01T14:38:48.452Z,2.80
2022-08-01T14:41:15.906Z,3.20
2022-08-01T14:43:42.578Z,3.10
2022-08-01T14:46:10.799Z,3.10
2022-08-01T14:48:37.323Z,3.20
2022-08-01T14:51:05.457Z,3.03
2022-08-01T14:53:33.625Z,2.87
2022-08-01T14:56:02.330Z,2.83
2022-08-01T14:58:29.522Z,2.53
2022-08-01T15:00:58.961Z,2.40
2022-08-01T15:03:26.789Z,2.80
2022-08-01T15:05:53.358Z,2.57
2022-08-01T15:08:19.876Z,2.90
2022-08-01T15:10:46.363Z,2.43
2022-08-01T15:13:13.142Z,2.33
2022-08-01T15:15:39.622Z,2.63
2022-08-01T15:18:06.069Z,2.50
2022-08-01T15:20:33.969Z,2.20
2022-08-01T15:23:03.242Z,2.37
2022-08-01T15:25:41.660Z,2.30
2022-08-01T15:28:10.708Z,2.40
2022-08-01T15:30:37.391Z,2.37
2022-08-01T15:33:03.989Z,2.33
2022-08-01T15:35:31.329Z,2.63
2022-08-01T15:37:58.512Z,2.20
2022-08-01T15:40:28.409Z,1.97
2022-08-01T15:42:55.022Z,2.50
2022-08-01T15:45:46.493Z,2.17
2022-08-01T15:48:10.221Z,2.10
2022-08-01T15:50:39.247Z,2.20
2022-08-01T15:53:06.882Z,2.27
2022-08-01T15:55:40.279Z,2.37
2022-08-01T15:58:07.563Z,2.47
2022-08-01T16:00:39.125Z,2.47
2022-08-01T16:03:07.686Z,2.40
2022-08-01T16:05:41.063Z,2.53
2022-08-01T16:08:12.181Z,2.20
2022-08-01T16:10:38.818Z,2.07
2022-08-01T16:13:07.014Z,2.20
2022-08-01T16:15:39.196Z,2.20
2022-08-01T16:18:08.026Z,2.20
2022-08-01T16:20:35.584Z,2.10
2022-08-01T16:23:09.033Z,2.23
2022-08-01T16:25:39.427Z,2.80
2022-08-01T16:28:06.274Z,3.00
2022-08-01T16:30:33.249Z,3.43
2022-08-01T16:33:16.158Z,2.90
2022-08-01T16:35:46.946Z,2.30
2022-08-01T16:38:19.257Z,2.20
2022-08-01T16:40:50.735Z,2.47
2022-08-01T16:43:19.024Z,3.20
2022-08-01T16:45:46.773Z,2.47
2022-08-01T16:48:20.690Z,2.20
2022-08-01T16:50:52.890Z,2.10
2022-08-01T16:53:20.668Z,2.43
2022-08-01T16:55:50.242Z,2.60
2022-08-01T16:58:22.291Z,2.60
2022-08-01T17:00:57.782Z,2.70
2022-08-01T17:03:51.907Z,2.40
2022-08-01T17:06:20.749Z,2.43
2022-08-01T17:08:49.902Z,2.33
2022-08-01T17:11:16.731Z,2.60
2022-08-01T17:13:43.686Z,2.60
2022-08-01T17:16:11.132Z,2.40
2022-08-01T17:18:37.949Z,2.77
2022-08-01T17:21:04.638Z,2.80
2022-08-01T17:23:32.011Z,2.80
2022-08-01T17:25:59.664Z,2.50
2022-08-01T17:28:27.379Z,2.50
2022-08-01T17:30:54.703Z,2.30
2022-08-01T17:33:21.799Z,2.60
2022-08-01T17:35:48.501Z,2.53
2022-08-01T17:38:14.976Z,2.33
2022-08-01T17:40:41.663Z,2.50
2022-08-01T17:43:08.644Z,2.70
2022-08-01T17:45:39.333Z,2.40
2022-08-01T17:48:17.872Z,2.30
2022-08-01T17:50:46.034Z,3.20
2022-08-01T17:53:13.419Z,2.77
2022-08-01T17:55:55.807Z,2.77
2022-08-01T17:58:33.726Z,2.27
2022-08-01T18:01:12.360Z,2.50
2022-08-01T18:03:41.437Z,2.20
2022-08-01T18:06:09.126Z,2.57
2022-08-01T18:08:36.041Z,2.60
2022-08-01T18:11:02.505Z,2.40
2022-08-01T18:13:30.493Z,2.73
2022-08-01T18:15:58.102Z,2.47
2022-08-01T18:18:33.768Z,3.17
2022-08-01T18:21:04.795Z,2.47
2022-08-01T18:23:33.411Z,2.77
2022-08-01T18:26:02.329Z,2.93
2022-08-01T18:28:38.000Z,2.90
2022-08-01T18:31:08.062Z,2.63
2022-08-01T18:33:35.973Z,2.53
2022-08-01T18:36:04.570Z,2.80
2022-08-01T18:38:35.231Z,2.33
2022-08-01T18:41:05.892Z,2.50
2022-08-01T18:43:32.429Z,2.60
2022-08-01T18:46:01.465Z,2.83
2022-08-01T18:48:28.723Z,2.60
2022-08-01T18:50:55.323Z,2.50
2022-08-01T18:53:24.872Z,2.70
2022-08-01T18:55:51.482Z,2.47
2022-08-01T18:58:18.403Z,2.83
2022-08-01T19:00:45.126Z,2.93
2022-08-01T19:03:13.509Z,2.57
2022-08-01T19:05:39.994Z,2.83
2022-08-01T19:08:07.907Z,2.70
2022-08-01T19:10:36.474Z,3.03
2022-08-01T19:13:03.521Z,2.63
2022-08-01T19:15:30.622Z,2.80
2022-08-01T19:17:57.190Z,2.90
2022-08-01T19:20:24.098Z,3.10
2022-08-01T19:22:50.641Z,3.10
2022-08-01T19:25:17.311Z,3.03
2022-08-01T19:27:48.454Z,2.80
2022-08-01T19:30:16.363Z,2.77
2022-08-01T19:32:47.369Z,3.23
2022-08-01T19:35:17.034Z,2.87
2022-08-01T19:37:47.065Z,2.93
2022-08-01T19:40:27.769Z,3.20
2022-08-01T19:42:56.772Z,2.80
2022-08-01T19:45:25.147Z,3.30
2022-08-01T19:47:57.386Z,3.13
2022-08-01T19:50:51.184Z,2.63
2022-08-01T19:53:20.916Z,3.00
2022-08-01T19:55:47.423Z,2.87
2022-08-01T19:58:26.936Z,2.70
2022-08-01T20:00:55.378Z,3.03
2022-08-01T20:03:23.951Z,3.00
2022-08-01T20:05:51.054Z,3.13
2022-08-01T20:08:19.501Z,3.13
2022-08-01T20:10:47.330Z,3.70
2022-08-01T20:13:14.397Z,3.43
2022-08-01T20:15:43.293Z,3.63
2022-08-01T20:18:09.861Z,3.20
2022-08-01T20:20:37.992Z,3.37
2022-08-01T20:23:10.510Z,3.13
2022-08-01T20:25:48.288Z,3.57
2022-08-01T20:28:15.879Z,3.30
2022-08-01T20:30:43.613Z,3.03
2022-08-01T20:33:11.526Z,3.17
2022-08-01T20:35:50.883Z,3.03
2022-08-01T20:38:27.465Z,3.10
2022-08-01T20:40:59.865Z,3.57
2022-08-01T20:43:27.524Z,3.43
2022-08-01T20:45:56.130Z,3.00
2022-08-01T20:48:26.131Z,2.90
2022-08-01T20:51:11.503Z,3.00
2022-08-01T20:53:42.299Z,3.27
2022-08-01T20:56:23.937Z,3.20
2022-08-01T20:59:55.058Z,3.23
2022-08-01T21:02:26.145Z,3.30
2022-08-01T21:05:00.814Z,3.20
2022-08-01T21:07:32.392Z,3.43
2022-08-01T21:10:07.956Z,3.40
2022-08-01T21:12:49.532Z,2.97
2022-08-01T21:15:32.310Z,3.60
2022-08-01T21:18:03.584Z,3.27
2022-08-01T21:20:33.874Z,2.80
2022-08-01T21:23:18.729Z,3.43
2022-08-01T21:25:47.822Z,3.20
2022-08-01T21:28:15.598Z,3.63
2022-08-01T21:30:42.512Z,3.10
2022-08-01T21:33:23.842Z,3.17
2022-08-01T21:35:55.578Z,3.10
2022-08-01T21:38:23.906Z,3.27
2022-08-01T21:40:53.007Z,3.30
2022-08-01T21:43:21.025Z,4.07
2022-08-01T21:45:58.326Z,3.10
2022-08-01T21:48:27.173Z,3.63
2022-08-01T21:51:05.952Z,3.20
2022-08-01T21:54:09.860Z,3.47
2022-08-01T21:57:23.773Z,3.97
2022-08-01T22:00:10.067Z,3.43
2022-08-01T22:03:07.119Z,3.40
2022-08-01T22:05:49.580Z,3.63
2022-08-01T22:08:44.915Z,3.90
2022-08-01T22:11:18.070Z,3.27
2022-08-01T22:13:44.534Z,3.27
2022-08-01T22:16:13.062Z,3.47
2022-08-01T22:18:39.735Z,3.43
2022-08-01T22:21:07.787Z,3.10
2022-08-01T22:23:37.827Z,3.20
2022-08-01T22:26:09.651Z,3.40
2022-08-01T22:28:38.141Z,3.80
2022-08-01T22:31:08.882Z,4.23
2022-08-01T22:33:37.662Z,3.37
2022-08-01T22:36:06.131Z,3.70
2022-08-01T22:38:34.229Z,3.87
2022-08-01T22:41:05.131Z,3.30
2022-08-01T22:44:10.127Z,3.20
2022-08-01T22:47:07.582Z,3.63
2022-08-01T22:49:42.064Z,3.50
2022-08-01T22:52:19.931Z,3.40
2022-08-01T22:54:51.522Z,3.63
2022-08-01T22:57:34.333Z,3.63
2022-08-01T23:00:06.442Z,3.90
2022-08-01T23:02:37.386Z,4.03
2022-08-01T23:05:07.999Z,3.47
2022-08-01T23:07:39.231Z,3.23
2022-08-01T23:10:07.463Z,3.70
2022-08-01T23:12:33.962Z,3.30
2022-08-01T23:15:25.185Z,3.90
2022-08-01T23:17:52.312Z,3.67
2022-08-01T23:20:19.142Z,2.90
2022-08-01T23:22:46.932Z,3.57
2022-08-01T23:25:15.124Z,3.47
2022-08-01T23:27:51.971Z,3.63
2022-08-01T23:30:32.951Z,3.63
2022-08-01T23:33:00.653Z,3.60
2022-08-01T23:35:38.745Z,3.63
2022-08-01T23:38:06.785Z,3.70
2022-08-01T23:40:35.080Z,3.27
2022-08-01T23:43:06.556Z,3.10
2022-08-01T23:46:04.191Z,3.37
2022-08-01T23:48:31.029Z,3.57
2022-08-01T23:50:57.616Z,3.60
2022-08-01T23:53:24.187Z,3.83
2022-08-01T23:55:58.416Z,3.73
2022-08-01T23:58:25.273Z,4.20
